X  Fermer Données météorologiques d'aviation de Metar     LIPX Verona-Villafranca Valerio Catullo Airport
Température
10°C Température
9°C Point de rosée
94% Humidité



Vitesse
3 KM/H
2 MPH
1 M/S
2 KTS



Calme
Nord
Conditions actuelles

Légère  Pluie Légère Pluie
Pression 1017.92 (hPa) - 30.06 (inHg)
Visibilité 4.3 (mile) - 7 (km)
Aéroport
Code de l'aéroport LIPX

Emplacement: Verona-Villafranca Valerio Catullo Airport
Distance: 50 (km)

Metar:
LIPX 051050Z VRB02KT 7000 -RA SCT015 BKN040 10/09 Q1018

Temps: 05-12-2022 11:50 CET